Time;durP1;ratioP1;P1;durP2;ratioP2;P2;SDS_P1;SDS_P2;PMS_P1;PMS_P2;Temp;Humidity;BMP_temperature;BMP_pressure;BME280_temperature;BME280_humidity;BME280_pressure;Samples;Min_cycle;Max_cycle;Signal;HPM_P1;HPM_P2
2023/09/06 00:01:48;;;;;;;;;17.50;13.75;;;;;24.56;53.61;99415.00;5076169;28;45713;-70
2023/09/06 00:04:14;;;;;;;;;15.80;15.60;;;;;24.52;53.88;99416.25;5074978;28;45372;-68
2023/09/06 00:06:39;;;;;;;;;14.25;12.50;;;;;24.47;54.28;99418.53;5076151;28;45885;-68
2023/09/06 00:09:04;;;;;;;;;14.75;14.00;;;;;24.44;53.83;99416.13;5076539;28;45451;-69
2023/09/06 00:11:30;;;;;;;;;16.00;16.00;;;;;24.43;53.47;99418.97;5075393;28;46258;-68
2023/09/06 00:13:55;;;;;;;;;14.75;14.50;;;;;24.38;54.03;99415.84;5075114;28;45463;-68
2023/09/06 00:16:21;;;;;;;;;15.00;15.00;;;;;24.34;54.07;99413.41;5075948;28;45410;-68
2023/09/06 00:18:46;;;;;;;;;16.00;16.00;;;;;24.31;54.38;99415.53;5076396;28;45430;-70
2023/09/06 00:21:11;;;;;;;;;16.25;13.75;;;;;24.28;54.55;99410.47;5076272;28;45505;-70
2023/09/06 00:23:37;;;;;;;;;11.25;10.75;;;;;24.23;54.54;99418.97;5075171;28;45439;-69
2023/09/06 00:26:03;;;;;;;;;17.00;15.75;;;;;24.20;54.71;99419.19;5075080;28;45375;-69
2023/09/06 00:28:28;;;;;;;;;14.50;14.00;;;;;24.16;54.69;99419.63;5076461;28;45629;-68
2023/09/06 00:30:56;;;;;;;;;13.50;13.50;;;;;24.15;54.73;99418.75;5076493;28;45435;-69
2023/09/06 00:33:24;;;;;;;;;17.80;14.40;;;;;24.14;55.19;99414.38;5076020;28;45409;-70
2023/09/06 00:35:49;;;;;;;;;15.00;14.00;;;;;24.12;54.94;99416.38;5091637;27;45410;-69
2023/09/06 00:38:15;;;;;;;;;14.75;14.25;;;;;24.13;54.89;99411.84;5074864;28;45388;-69
2023/09/06 00:40:41;;;;;;;;;12.75;12.00;;;;;24.13;54.77;99409.97;5076029;28;46193;-70
2023/09/06 00:43:08;;;;;;;;;13.75;13.75;;;;;24.14;54.67;99414.38;5075981;28;45400;-68
2023/09/06 00:45:41;;;;;;;;;13.00;12.00;;;;;24.14;54.90;99419.75;5076171;28;45424;-68
2023/09/06 00:48:07;;;;;;;;;14.50;13.25;;;;;24.14;54.84;99413.50;5076231;28;45550;-69
2023/09/06 00:50:35;;;;;;;;;15.00;14.25;;;;;24.12;54.84;99420.91;5075751;28;46066;-69
2023/09/06 00:53:04;;;;;;;;;15.20;14.00;;;;;24.10;55.22;99420.19;5075687;28;45325;-69
2023/09/06 00:55:29;;;;;;;;;15.25;15.25;;;;;24.07;55.42;99421.31;5076221;28;45341;-70
2023/09/06 00:57:55;;;;;;;;;16.75;16.75;;;;;24.05;56.22;99414.38;5076041;28;45278;-70
2023/09/06 01:00:24;;;;;;;;;15.75;15.75;;;;;23.99;55.75;99421.16;5075920;28;45600;-69
2023/09/06 01:02:50;;;;;;;;;13.40;12.80;;;;;23.91;56.10;99419.16;5075823;28;45404;-69
2023/09/06 01:05:19;;;;;;;;;15.50;14.25;;;;;23.85;56.70;99422.41;5075845;28;45315;-69
2023/09/06 01:07:49;;;;;;;;;16.00;14.50;;;;;23.80;56.86;99415.72;5055293;28;45266;-69
2023/09/06 01:10:15;;;;;;;;;16.00;16.00;;;;;23.74;56.75;99425.22;5055617;28;45386;-69
2023/09/06 01:12:40;;;;;;;;;14.25;13.50;;;;;23.72;57.10;99420.94;5055389;28;45428;-69
2023/09/06 01:15:06;;;;;;;;;11.75;11.75;;;;;23.70;57.33;99418.41;5055369;28;45905;-69
2023/09/06 01:17:36;;;;;;;;;16.25;15.25;;;;;23.66;57.67;99416.97;5055345;28;45371;-69
2023/09/06 01:20:17;;;;;;;;;17.00;17.00;;;;;23.61;58.04;99420.09;5055161;28;45424;-69
2023/09/06 01:22:51;;;;;;;;;15.20;14.00;;;;;23.56;58.06;99421.47;5054919;28;45374;-69
2023/09/06 01:25:17;;;;;;;;;18.00;17.50;;;;;23.50;58.28;99413.91;5055221;28;45314;-69
2023/09/06 01:27:43;;;;;;;;;17.50;14.75;;;;;23.49;57.79;99420.25;5054972;28;45407;-69
2023/09/06 01:30:08;;;;;;;;;15.50;15.50;;;;;23.45;58.78;99424.25;5055499;28;45613;-69
2023/09/06 01:32:34;;;;;;;;;14.00;14.00;;;;;23.38;58.50;99413.16;5055410;28;45367;-69
2023/09/06 01:35:00;;;;;;;;;16.25;15.00;;;;;23.35;58.75;99421.50;5063340;28;45385;-69
2023/09/06 01:37:25;;;;;;;;;17.25;16.75;;;;;23.31;59.04;99420.91;5075058;28;45398;-69
2023/09/06 01:39:50;;;;;;;;;16.00;16.00;;;;;23.27;58.63;99418.63;5075297;28;45511;-69
2023/09/06 01:42:22;;;;;;;;;15.75;14.25;;;;;23.26;59.36;99427.69;5075281;28;45580;-69
2023/09/06 01:44:48;;;;;;;;;18.75;17.00;;;;;23.24;58.87;99421.59;5074994;28;45389;-70
2023/09/06 01:47:13;;;;;;;;;14.50;14.25;;;;;23.22;58.23;99423.56;5090710;27;45939;-69
2023/09/06 01:49:38;;;;;;;;;13.25;13.25;;;;;23.20;59.12;99417.47;5074923;28;46252;-69
2023/09/06 01:52:05;;;;;;;;;15.25;15.00;;;;;23.20;58.81;99418.31;5074966;28;45294;-69
2023/09/06 01:54:30;;;;;;;;;18.00;16.25;;;;;23.16;58.76;99419.56;5075503;28;45377;-69
2023/09/06 01:56:56;;;;;;;;;14.75;14.00;;;;;23.14;58.85;99418.84;5074650;28;45528;-69
2023/09/06 01:59:21;;;;;;;;;13.00;12.25;;;;;23.09;59.02;99426.47;5075058;28;46439;-69
2023/09/06 02:01:53;;;;;;;;;16.50;14.00;;;;;23.04;59.30;99417.94;5074984;28;45470;-69
2023/09/06 02:04:18;;;;;;;;;14.00;13.00;;;;;22.96;59.23;99415.91;5075053;28;45463;-70
2023/09/06 02:06:44;;;;;;;;;12.25;12.25;;;;;22.87;59.92;99418.53;5074677;28;45365;-69
2023/09/06 02:09:09;;;;;;;;;13.50;13.50;;;;;22.77;60.08;99414.97;5073355;28;45677;-69
2023/09/06 02:11:35;;;;;;;;;18.00;17.00;;;;;22.67;59.79;99416.66;5074704;28;45383;-69
2023/09/06 02:14:00;;;;;;;;;16.00;14.00;;;;;22.57;59.65;99417.47;5073464;28;45640;-69
2023/09/06 02:16:25;;;;;;;;;17.00;17.00;;;;;22.50;60.38;99413.59;5075089;28;45550;-68
2023/09/06 02:18:51;;;;;;;;;16.25;14.25;;;;;22.44;60.18;99422.19;5074729;28;46416;-70
2023/09/06 02:21:16;;;;;;;;;14.75;14.75;;;;;22.40;60.51;99409.13;5074086;28;45416;-70
2023/09/06 02:23:41;;;;;;;;;15.00;15.00;;;;;22.35;60.93;99408.66;5074688;28;45395;-69
2023/09/06 02:26:07;;;;;;;;;18.00;15.25;;;;;22.31;61.15;99415.25;5074515;28;45473;-69
2023/09/06 02:28:34;;;;;;;;;18.00;15.50;;;;;22.29;61.62;99420.75;5074369;28;45627;-69
2023/09/06 02:30:59;;;;;;;;;18.60;17.40;;;;;22.23;61.50;99427.50;5074770;28;45413;-69
2023/09/06 02:33:26;;;;;;;;;16.50;16.25;;;;;22.18;61.63;99428.84;5074834;28;45418;-69
2023/09/06 02:35:51;;;;;;;;;15.00;13.75;;;;;22.11;61.92;99420.47;5074303;28;45626;-69
2023/09/06 02:38:17;;;;;;;;;15.00;15.00;;;;;22.06;62.14;99421.81;5074536;28;45301;-69
2023/09/06 02:40:42;;;;;;;;;16.25;16.00;;;;;21.98;61.61;99424.25;5076332;28;45472;-69
2023/09/06 02:43:10;;;;;;;;;18.25;16.50;;;;;21.90;62.73;99430.25;5076827;28;45458;-70
2023/09/06 02:45:36;;;;;;;;;18.00;16.25;;;;;21.84;63.35;99430.75;5078108;28;45423;-69
2023/09/06 02:48:06;;;;;;;;;14.75;14.75;;;;;21.81;63.11;99431.84;5093747;27;45538;-69
2023/09/06 02:50:34;;;;;;;;;16.80;16.80;;;;;21.76;63.84;99427.84;5077718;28;45387;-69
2023/09/06 02:53:01;;;;;;;;;20.50;18.00;;;;;21.73;63.53;99428.94;5077788;28;45384;-69
2023/09/06 02:55:27;;;;;;;;;17.00;17.00;;;;;21.70;63.44;99426.50;5078100;28;45395;-69
2023/09/06 02:57:54;;;;;;;;;18.75;18.75;;;;;21.68;63.76;99424.91;5076453;28;46412;-69
2023/09/06 03:00:25;;;;;;;;;16.00;15.20;;;;;21.64;63.78;99426.13;5077854;28;45464;-70
2023/09/06 03:03:05;;;;;;;;;19.25;17.25;;;;;21.62;64.14;99431.63;5077691;28;45494;-70
2023/09/06 03:05:41;;;;;;;;;16.75;14.00;;;;;21.57;64.11;99429.34;5077754;28;45369;-69
2023/09/06 03:08:07;;;;;;;;;17.25;15.50;;;;;21.56;64.49;99429.47;5077636;28;45518;-69
2023/09/06 03:10:33;;;;;;;;;16.25;15.25;;;;;21.55;65.10;99425.06;5077846;28;45440;-69
2023/09/06 03:12:59;;;;;;;;;16.50;16.00;;;;;21.51;64.82;99427.13;5077790;28;45368;-69
2023/09/06 03:15:29;;;;;;;;;19.25;16.75;;;;;21.50;64.61;99432.63;5077440;28;45561;-68
2023/09/06 03:17:58;;;;;;;;;19.75;18.00;;;;;21.47;64.93;99424.81;5076751;28;45357;-70
2023/09/06 03:20:42;;;;;;;;;17.60;16.00;;;;;21.44;65.19;99425.09;5077037;28;45428;-70
2023/09/06 03:23:17;;;;;;;;;17.75;17.50;;;;;21.40;65.24;99421.78;5076922;28;45357;-68
2023/09/06 03:25:54;;;;;;;;;14.25;13.75;;;;;21.39;64.96;99424.59;5076911;28;45346;-68
2023/09/06 03:28:20;;;;;;;;;19.75;19.00;;;;;21.37;65.24;99419.34;5076780;28;45371;-68
2023/09/06 03:30:47;;;;;;;;;14.80;14.80;;;;;21.33;65.41;99414.34;5077441;28;45560;-70
2023/09/06 03:33:12;;;;;;;;;14.75;14.75;;;;;21.30;64.78;99411.88;5077027;28;45467;-69
2023/09/06 03:35:38;;;;;;;;;17.00;17.00;;;;;21.26;65.40;99411.31;5076468;28;45419;-68
2023/09/06 03:38:08;;;;;;;;;14.25;14.25;;;;;21.21;65.12;99410.81;5075549;27;46607;-70
2023/09/06 03:40:36;;;;;;;;;19.40;16.60;;;;;21.17;66.25;99418.19;5077184;28;45380;-68
2023/09/06 03:43:14;;;;;;;;;19.25;16.25;;;;;21.12;66.77;99420.38;5077235;28;45417;-70
2023/09/06 03:45:55;;;;;;;;;17.00;16.25;;;;;21.09;66.10;99414.44;5077011;28;45399;-68
2023/09/06 03:48:22;;;;;;;;;16.00;13.50;;;;;21.06;66.65;99420.88;5076898;28;45965;-70
2023/09/06 03:50:53;;;;;;;;;16.20;16.20;;;;;21.04;66.07;99412.09;5074886;28;45444;-72
2023/09/06 03:53:18;;;;;;;;;15.75;15.75;;;;;21.07;66.67;99421.75;5076402;27;45376;-70
2023/09/06 03:55:46;;;;;;;;;15.00;13.50;;;;;21.07;66.31;99421.75;5077110;28;45598;-70
2023/09/06 03:58:11;;;;;;;;;14.50;14.50;;;;;21.07;65.89;99427.97;5076927;28;46116;-70
2023/09/06 04:00:39;;;;;;;;;14.50;14.00;;;;;21.08;65.65;99429.66;5076951;28;45478;-70
2023/09/06 04:03:07;;;;;;;;;18.50;16.50;;;;;21.11;65.91;99434.78;5076732;28;45448;-72
2023/09/06 04:05:33;;;;;;;;;17.25;16.25;;;;;21.11;65.23;99432.09;5076255;28;45274;-70
2023/09/06 04:08:00;;;;;;;;;15.50;13.00;;;;;21.10;65.15;99441.13;5076354;28;45523;-70
2023/09/06 04:10:35;;;;;;;;;15.60;14.20;;;;;21.10;65.37;99437.59;5076545;28;45316;-70
2023/09/06 04:13:01;;;;;;;;;14.75;14.00;;;;;21.09;65.05;99447.47;5076512;28;45491;-70
2023/09/06 04:15:26;;;;;;;;;18.25;16.50;;;;;21.08;65.55;99439.53;5076394;28;45428;-70
2023/09/06 04:17:59;;;;;;;;;17.50;15.00;;;;;21.05;65.29;99445.97;5076220;28;46569;-70
2023/09/06 04:20:32;;;;;;;;;13.80;13.20;;;;;21.06;65.17;99452.19;5076366;28;45247;-70
2023/09/06 04:22:58;;;;;;;;;13.75;12.75;;;;;21.05;65.38;99447.81;5076521;28;45627;-70
2023/09/06 04:25:26;;;;;;;;;14.00;14.00;;;;;21.06;65.40;99449.53;5076345;28;45357;-70
2023/09/06 04:27:56;;;;;;;;;17.00;15.75;;;;;21.07;64.93;99445.88;5091984;27;47213;-70
2023/09/06 04:30:23;;;;;;;;;16.60;14.20;;;;;21.07;64.65;99451.22;5076285;28;45311;-70
2023/09/06 04:32:48;;;;;;;;;15.25;13.00;;;;;21.07;65.02;99444.03;5076415;28;45427;-70
2023/09/06 04:35:17;;;;;;;;;15.50;14.75;;;;;21.09;64.69;99446.59;5075867;28;45317;-69
2023/09/06 04:37:43;;;;;;;;;19.25;17.75;;;;;21.08;65.37;99442.22;5075240;28;45637;-71
2023/09/06 04:40:12;;;;;;;;;22.20;15.40;;;;;21.09;65.24;99449.28;5075871;28;45411;-69
2023/09/06 04:42:40;;;;;;;;;19.00;15.50;;;;;21.08;64.32;99447.56;5075905;28;45297;-70
2023/09/06 04:45:09;;;;;;;;;14.50;14.00;;;;;21.07;64.83;99446.72;5075745;28;45553;-71
2023/09/06 04:47:36;;;;;;;;;14.25;13.75;;;;;21.07;64.95;99453.91;5075604;28;46697;-71
2023/09/06 04:50:03;;;;;;;;;15.00;15.00;;;;;21.06;64.65;99447.69;5075593;28;45518;-70
2023/09/06 04:52:29;;;;;;;;;17.25;14.50;;;;;21.03;65.01;99445.25;5075496;28;45413;-69
2023/09/06 04:54:54;;;;;;;;;16.50;16.50;;;;;21.02;64.58;99445.38;5075563;28;45430;-71
2023/09/06 04:57:20;;;;;;;;;14.75;14.00;;;;;21.00;64.70;99441.94;5075549;28;47159;-70
2023/09/06 04:59:46;;;;;;;;;16.80;13.80;;;;;20.98;64.73;99450.09;5074268;28;45494;-70
2023/09/06 05:02:11;;;;;;;;;16.00;15.25;;;;;20.97;65.18;99456.44;5075405;28;45459;-70
2023/09/06 05:04:37;;;;;;;;;13.00;12.50;;;;;20.98;64.86;99455.47;5075182;28;45430;-70
2023/09/06 05:07:05;;;;;;;;;15.50;15.50;;;;;20.99;64.50;99456.31;5074744;28;45432;-69
2023/09/06 05:09:34;;;;;;;;;19.60;16.00;;;;;20.98;65.11;99452.78;5075117;28;45410;-70
2023/09/06 05:12:00;;;;;;;;;16.50;16.25;;;;;21.01;65.01;99457.06;5075147;28;45395;-70
2023/09/06 05:14:25;;;;;;;;;15.25;15.25;;;;;21.02;64.68;99461.44;5074842;28;45384;-70
2023/09/06 05:16:50;;;;;;;;;17.00;16.50;;;;;21.04;64.40;99462.19;5074852;28;46462;-69
2023/09/06 05:19:16;;;;;;;;;12.25;11.75;;;;;21.02;64.80;99464.13;5074985;28;45372;-69
2023/09/06 05:21:41;;;;;;;;;19.75;19.00;;;;;21.01;65.04;99463.28;5074681;28;45298;-70
2023/09/06 05:24:06;;;;;;;;;14.50;14.50;;;;;21.02;65.03;99459.63;5074748;28;45392;-70
2023/09/06 05:26:35;;;;;;;;;18.75;18.75;;;;;21.03;64.75;99458.66;5074321;28;45523;-71
2023/09/06 05:29:00;;;;;;;;;18.60;15.20;;;;;21.03;64.69;99466.69;5074770;28;45457;-70
2023/09/06 05:31:26;;;;;;;;;16.25;15.00;;;;;21.03;64.36;99466.69;5074866;28;45423;-70
2023/09/06 05:33:51;;;;;;;;;17.75;17.00;;;;;21.01;65.15;99465.94;5074776;28;45533;-69
2023/09/06 05:36:16;;;;;;;;;12.25;12.25;;;;;21.02;65.44;99467.66;5074199;28;45439;-70
2023/09/06 05:38:42;;;;;;;;;15.50;15.50;;;;;21.01;65.04;99465.94;5074705;28;45423;-69
2023/09/06 05:41:08;;;;;;;;;18.25;15.25;;;;;21.03;65.21;99469.38;5074211;28;45278;-70
2023/09/06 05:43:33;;;;;;;;;15.75;14.00;;;;;21.02;64.90;99467.66;5074517;28;45372;-70
2023/09/06 05:45:59;;;;;;;;;16.50;13.75;;;;;21.03;64.93;99465.84;5074461;28;46605;-70
2023/09/06 05:48:24;;;;;;;;;14.25;13.25;;;;;21.03;65.56;99468.53;5073674;28;45314;-70
2023/09/06 05:50:50;;;;;;;;;20.50;18.25;;;;;21.04;65.42;99473.75;5073653;28;45422;-70
2023/09/06 05:53:15;;;;;;;;;15.75;14.75;;;;;21.06;65.29;99473.66;5074214;28;45498;-70
2023/09/06 05:55:41;;;;;;;;;12.75;12.75;;;;;21.10;65.27;99472.44;5073488;28;45381;-71
2023/09/06 05:58:07;;;;;;;;;14.50;14.50;;;;;21.12;64.95;99476.69;5073769;28;45413;-70
2023/09/06 06:00:34;;;;;;;;;13.25;12.00;;;;;21.18;64.61;99480.72;5074150;28;45349;-70
2023/09/06 06:03:01;;;;;;;;;18.25;14.00;;;;;21.24;64.78;99482.97;5073928;28;45459;-70
2023/09/06 06:05:28;;;;;;;;;21.00;19.00;;;;;21.29;64.99;99479.91;5072225;28;48048;-70
2023/09/06 06:07:54;;;;;;;;;19.75;15.50;;;;;21.32;64.75;99471.63;5073943;28;45412;-70
2023/09/06 06:10:19;;;;;;;;;15.75;14.50;;;;;21.34;64.57;99481.28;5072568;28;45314;-70
2023/09/06 06:12:45;;;;;;;;;18.25;16.75;;;;;21.38;64.25;99479.22;5074108;28;45489;-70
2023/09/06 06:15:12;;;;;;;;;12.00;12.00;;;;;21.41;63.73;99473.59;5072443;28;45403;-70
2023/09/06 06:17:38;;;;;;;;;13.40;13.40;;;;;21.43;63.56;99475.19;5073557;28;45624;-70
2023/09/06 06:20:07;;;;;;;;;15.25;14.25;;;;;21.46;63.69;99482.13;5073962;28;45697;-70
2023/09/06 06:22:38;;;;;;;;;18.50;18.50;;;;;21.46;63.39;99477.59;5089221;27;45969;-70
2023/09/06 06:25:05;;;;;;;;;14.00;14.00;;;;;21.49;63.19;99484.56;5089624;27;45545;-70
2023/09/06 06:27:30;;;;;;;;;15.00;15.00;;;;;21.52;63.24;99476.28;5074290;28;45415;-70
2023/09/06 06:29:56;;;;;;;;;16.00;13.75;;;;;21.55;62.93;99479.59;5073775;28;45434;-73
2023/09/06 06:32:22;;;;;;;;;16.00;14.75;;;;;21.57;62.81;99483.00;5073900;28;45410;-71
2023/09/06 06:34:50;;;;;;;;;10.75;9.75;;;;;21.61;63.03;99474.72;5071975;28;47125;-70
2023/09/06 06:37:16;;;;;;;;;15.20;12.80;;;;;21.64;62.72;99477.97;5073508;28;45359;-70
2023/09/06 06:39:41;;;;;;;;;15.50;13.00;;;;;21.70;62.85;99487.38;5073899;28;45370;-70
2023/09/06 06:42:07;;;;;;;;;13.25;13.25;;;;;21.76;62.72;99478.84;5073349;28;45452;-70
2023/09/06 06:44:33;;;;;;;;;18.50;15.50;;;;;21.83;62.93;99474.66;5073321;28;45384;-70
2023/09/06 06:46:59;;;;;;;;;13.00;12.75;;;;;21.92;61.95;99473.94;5073409;28;45449;-70
2023/09/06 06:49:25;;;;;;;;;13.00;13.00;;;;;21.97;61.38;99474.41;5072872;28;45408;-70
2023/09/06 06:51:50;;;;;;;;;13.00;12.00;;;;;22.02;61.01;99477.59;5073064;28;45441;-68
2023/09/06 06:54:15;;;;;;;;;18.00;15.50;;;;;22.08;61.06;99474.44;5072996;28;46342;-70
2023/09/06 06:56:41;;;;;;;;;15.50;15.50;;;;;22.15;61.51;99477.44;5073313;28;45436;-71
2023/09/06 06:59:08;;;;;;;;;16.50;15.00;;;;;22.21;61.51;99475.13;5073760;28;45416;-71
2023/09/06 07:01:34;;;;;;;;;17.75;15.50;;;;;22.26;61.57;99474.75;5072334;28;45500;-69
2023/09/06 07:04:00;;;;;;;;;15.50;15.00;;;;;22.32;61.70;99476.06;5071637;28;47500;-71
2023/09/06 07:06:27;;;;;;;;;16.00;14.50;;;;;22.34;61.45;99474.97;5072832;28;45385;-69
2023/09/06 07:08:53;;;;;;;;;12.50;9.75;;;;;22.36;61.53;99470.31;5073664;28;45391;-68
2023/09/06 07:11:19;;;;;;;;;18.00;17.75;;;;;22.40;60.98;99476.28;5073205;28;45484;-70
2023/09/06 07:13:47;;;;;;;;;15.25;14.25;;;;;22.43;61.00;99470.66;5072846;28;46565;-68
2023/09/06 07:16:15;;;;;;;;;17.60;15.40;;;;;22.47;61.21;99475.63;5073087;28;45445;-70
2023/09/06 07:18:41;;;;;;;;;14.75;14.75;;;;;22.50;60.94;99470.00;5073416;28;45453;-69
2023/09/06 07:21:06;;;;;;;;;15.75;15.75;;;;;22.54;61.07;99473.31;5072654;28;45551;-69
2023/09/06 07:23:32;;;;;;;;;14.00;13.25;;;;;22.58;60.94;99475.63;5073020;28;45395;-69
2023/09/06 07:25:57;;;;;;;;;13.75;13.00;;;;;22.64;60.89;99479.59;5073594;28;45457;-69
2023/09/06 07:28:23;;;;;;;;;18.25;16.00;;;;;22.70;60.44;99480.94;5076846;28;45849;-69
2023/09/06 07:30:48;;;;;;;;;16.75;16.00;;;;;22.73;60.43;99486.91;5076752;28;45436;-70
2023/09/06 07:33:14;;;;;;;;;16.25;15.00;;;;;22.80;60.21;99482.72;5076509;28;46361;-70
2023/09/06 07:35:42;;;;;;;;;17.50;16.25;;;;;22.86;60.33;99484.91;5075645;28;45366;-70
2023/09/06 07:38:08;;;;;;;;;17.50;16.00;;;;;22.94;59.69;99492.34;5076475;28;45393;-70
2023/09/06 07:40:34;;;;;;;;;17.75;17.00;;;;;22.98;60.08;99494.63;5076248;28;45559;-68
2023/09/06 07:42:59;;;;;;;;;16.75;14.75;;;;;23.04;59.64;99493.25;5076746;28;45422;-69
2023/09/06 07:45:24;;;;;;;;;16.00;16.00;;;;;23.06;60.05;99490.44;5075515;28;45392;-69
2023/09/06 07:47:51;;;;;;;;;20.00;18.50;;;;;23.12;60.13;99492.59;5075992;28;45370;-69
2023/09/06 07:50:16;;;;;;;;;18.75;18.00;;;;;23.16;60.30;99488.66;5076378;28;45541;-71
2023/09/06 07:52:42;;;;;;;;;23.25;19.75;;;;;23.22;60.61;99493.50;5076086;28;46421;-69
2023/09/06 07:55:07;;;;;;;;;22.75;15.50;;;;;23.27;59.83;99483.22;5076413;28;45430;-69
2023/09/06 07:57:33;;;;;;;;;20.25;18.75;;;;;23.33;59.74;99488.03;5076745;28;45378;-69
2023/09/06 07:59:59;;;;;;;;;19.75;19.50;;;;;23.37;60.23;99484.09;5076216;28;45458;-72
2023/09/06 08:02:24;;;;;;;;;16.00;16.00;;;;;23.39;60.23;99484.81;5075215;28;46720;-70
2023/09/06 08:04:52;;;;;;;;;19.50;18.00;;;;;23.42;60.21;99481.88;5075567;28;45455;-70
2023/09/06 08:07:18;;;;;;;;;18.75;16.50;;;;;23.48;60.37;99486.69;5074426;28;45417;-68
2023/09/06 08:09:43;;;;;;;;;16.50;15.25;;;;;23.54;60.25;99488.03;5076149;28;45383;-70
2023/09/06 08:12:09;;;;;;;;;19.25;17.50;;;;;23.62;60.22;99489.09;5076190;28;46456;-70
2023/09/06 08:14:35;;;;;;;;;22.00;21.75;;;;;23.69;60.33;99484.00;5075919;28;45375;-70
2023/09/06 08:17:00;;;;;;;;;21.50;17.25;;;;;23.77;59.83;99484.19;5076401;28;45371;-71
2023/09/06 08:19:26;;;;;;;;;21.00;20.00;;;;;23.82;59.76;99478.38;5091653;27;45529;-70
2023/09/06 08:21:51;;;;;;;;;21.75;19.50;;;;;23.86;59.48;99477.97;5075067;28;45443;-69
2023/09/06 08:24:18;;;;;;;;;19.25;19.25;;;;;23.90;59.86;99486.63;5075185;28;45320;-71
2023/09/06 08:26:44;;;;;;;;;18.50;18.50;;;;;23.93;59.38;99479.13;5075545;28;45447;-69
2023/09/06 08:29:09;;;;;;;;;21.00;19.00;;;;;23.96;59.30;99475.31;5075794;28;45427;-70
2023/09/06 08:31:35;;;;;;;;;22.00;21.00;;;;;23.98;59.41;99478.69;5076064;28;46422;-69
2023/09/06 08:34:00;;;;;;;;;20.00;19.00;;;;;24.03;59.12;99479.16;5075828;28;45454;-69
2023/09/06 08:36:26;;;;;;;;;21.00;20.00;;;;;24.05;59.27;99474.47;5074182;28;45994;-70
2023/09/06 08:38:52;;;;;;;;;23.50;23.50;;;;;24.10;58.80;99474.06;5074783;28;45339;-69
2023/09/06 08:41:20;;;;;;;;;22.25;20.00;;;;;24.15;58.95;99477.19;5075815;28;45507;-69
2023/09/06 08:43:46;;;;;;;;;16.75;16.75;;;;;24.20;58.48;99478.47;5074016;28;45360;-69
2023/09/06 08:46:17;;;;;;;;;20.00;19.50;;;;;24.27;58.89;99474.28;5075868;28;45415;-69
2023/09/06 08:48:43;;;;;;;;;21.75;20.75;;;;;24.33;58.67;99468.31;5074628;28;45396;-70
2023/09/06 08:51:11;;;;;;;;;22.25;20.25;;;;;24.42;58.49;99471.16;5090347;27;45477;-70
2023/09/06 08:53:40;;;;;;;;;21.50;21.00;;;;;24.50;58.56;99472.16;5075628;28;45362;-70
2023/09/06 08:56:06;;;;;;;;;21.50;20.75;;;;;24.58;58.35;99472.31;5075546;28;45350;-70
2023/09/06 08:58:33;;;;;;;;;20.75;20.75;;;;;24.64;58.20;99471.72;5075418;28;45401;-71
2023/09/06 09:00:59;;;;;;;;;23.00;20.75;;;;;24.72;57.57;99475.56;5074025;28;47634;-70
2023/09/06 09:03:24;;;;;;;;;23.00;22.25;;;;;24.76;57.49;99467.06;5075074;28;45582;-72
2023/09/06 09:05:50;;;;;;;;;25.75;24.50;;;;;24.83;57.86;99462.78;5075267;28;45328;-70
2023/09/06 09:08:15;;;;;;;;;21.50;20.75;;;;;24.88;57.03;99465.91;5075741;28;45461;-70
2023/09/06 09:10:40;;;;;;;;;25.50;24.25;;;;;24.95;56.97;99461.69;5074843;28;46148;-72
2023/09/06 09:13:12;;;;;;;;;22.00;21.75;;;;;25.02;57.04;99457.38;5075555;28;45393;-72
2023/09/06 09:15:37;;;;;;;;;26.25;23.25;;;;;25.08;57.04;99458.66;5075363;27;45352;-69
2023/09/06 09:18:12;;;;;;;;;22.50;20.50;;;;;25.15;56.73;99450.81;5074864;28;45386;-69
2023/09/06 09:20:43;;;;;;;;;25.50;24.25;;;;;25.20;56.56;99452.09;5074757;27;46130;-69
2023/09/06 09:23:16;;;;;;;;;21.50;21.50;;;;;25.21;56.19;99451.09;5072693;28;45399;-69
2023/09/06 09:25:49;;;;;;;;;21.00;21.00;;;;;25.26;56.22;99453.38;5074587;27;45447;-69
2023/09/06 09:28:15;;;;;;;;;26.00;21.25;;;;;25.29;56.15;99450.38;5073710;28;45518;-69
2023/09/06 09:30:40;;;;;;;;;20.25;20.25;;;;;25.32;55.83;99444.66;5073033;28;47932;-71
2023/09/06 09:33:06;;;;;;;;;20.75;20.25;;;;;25.39;55.45;99445.78;5074834;27;45348;-69
2023/09/06 09:35:32;;;;;;;;;18.25;18.00;;;;;25.42;55.63;99448.19;5074575;28;45352;-71
2023/09/06 09:38:01;;;;;;;;;22.25;21.25;;;;;25.44;54.81;99448.06;5090462;27;45912;-69
2023/09/06 09:40:32;;;;;;;;;21.00;19.25;;;;;25.48;54.65;99438.63;5074586;28;45472;-69
2023/09/06 09:43:04;;;;;;;;;23.25;22.25;;;;;25.50;54.61;99433.94;5090548;27;45470;-69
2023/09/06 09:45:39;;;;;;;;;22.75;22.50;;;;;25.51;54.39;99431.09;5074391;28;45324;-69
2023/09/06 09:48:06;;;;;;;;;21.25;19.25;;;;;25.55;53.82;99420.84;5073226;28;45376;-70
2023/09/06 09:50:34;;;;;;;;;21.00;20.25;;;;;25.56;53.52;99420.72;5074003;28;46327;-70
2023/09/06 09:53:02;;;;;;;;;18.50;17.00;;;;;25.58;53.41;99417.88;5074667;28;45402;-69
2023/09/06 09:55:32;;;;;;;;;15.50;15.50;;;;;25.61;53.22;99413.03;5074990;28;45468;-71
2023/09/06 09:58:05;;;;;;;;;21.25;21.00;;;;;25.65;53.54;99411.72;5074227;28;45332;-71
2023/09/06 10:00:32;;;;;;;;;16.00;16.00;;;;;25.70;53.39;99414.84;5090051;27;47139;-69
2023/09/06 10:02:59;;;;;;;;;20.75;20.75;;;;;25.73;53.51;99406.44;5072938;28;46081;-70
2023/09/06 10:05:29;;;;;;;;;22.50;20.00;;;;;25.77;53.43;99398.91;5074114;28;45430;-70
2023/09/06 10:07:56;;;;;;;;;19.75;18.50;;;;;25.83;53.97;99392.88;5074348;27;45441;-72
2023/09/06 10:10:24;;;;;;;;;22.00;20.25;;;;;25.89;53.61;99389.56;5073616;28;45450;-72
2023/09/06 10:12:51;;;;;;;;;20.20;18.20;;;;;25.95;53.58;99397.06;5073763;27;45426;-71
2023/09/06 10:15:20;;;;;;;;;18.25;18.25;;;;;26.00;53.35;99388.50;5074257;27;45406;-70
2023/09/06 10:17:48;;;;;;;;;19.75;19.25;;;;;26.07;53.29;99386.88;5074202;28;45530;-70
2023/09/06 10:20:22;;;;;;;;;20.25;20.00;;;;;26.15;53.15;99383.41;5074078;27;45467;-70
2023/09/06 10:22:50;;;;;;;;;16.80;16.60;;;;;26.22;52.54;99389.91;5074302;27;45373;-71
2023/09/06 10:25:16;;;;;;;;;17.50;16.25;;;;;26.26;52.42;99383.19;5074397;27;45303;-70
2023/09/06 10:27:49;;;;;;;;;19.50;19.25;;;;;26.28;52.31;99384.75;5074481;27;45398;-69
2023/09/06 10:30:18;;;;;;;;;19.25;18.00;;;;;26.31;51.90;99379.03;5074068;27;45417;-69
2023/09/06 10:32:46;;;;;;;;;18.50;18.50;;;;;26.33;51.93;99376.16;5073321;28;45366;-69
2023/09/06 10:35:22;;;;;;;;;20.50;19.25;;;;;26.36;52.04;99383.97;5073479;27;45472;-69
2023/09/06 10:38:04;;;;;;;;;19.00;18.00;;;;;26.39;51.48;99380.97;5073290;28;45556;-69
2023/09/06 10:40:51;;;;;;;;;18.25;16.25;;;;;26.46;51.81;99373.09;5073848;28;46653;-70
2023/09/06 10:43:19;;;;;;;;;17.50;17.50;;;;;26.53;50.97;99368.75;5073847;27;45425;-69
2023/09/06 10:46:18;;;;;;;;;18.25;17.75;;;;;26.64;50.65;99374.78;5073861;28;45523;-69
2023/09/06 10:49:12;;;;;;;;;16.00;15.00;;;;;26.69;50.30;99363.47;5073970;28;45563;-71
2023/09/06 10:51:57;;;;;;;;;18.75;16.50;;;;;26.73;50.32;99363.00;5072178;28;45626;-70
2023/09/06 10:54:24;;;;;;;;;16.80;16.40;;;;;26.75;50.67;99362.84;5073818;28;45423;-70
2023/09/06 10:57:00;;;;;;;;;15.00;15.00;;;;;26.80;50.23;99365.06;5073765;28;45351;-69
2023/09/06 10:59:27;;;;;;;;;16.00;15.00;;;;;26.88;49.85;99354.28;5073633;28;45524;-71
2023/09/06 11:02:19;;;;;;;;;15.00;15.00;;;;;26.99;49.34;99341.34;5075759;28;45446;-71
2023/09/06 11:04:44;;;;;;;;;16.25;16.00;;;;;27.13;49.01;99352.63;5072666;28;45290;-69
2023/09/06 11:07:10;;;;;;;;;18.00;16.75;;;;;27.21;49.09;99355.34;5076844;28;45333;-71
2023/09/06 11:09:50;;;;;;;;;15.75;15.75;;;;;27.25;48.56;99338.63;5077217;28;45416;-71
2023/09/06 11:12:16;;;;;;;;;18.75;17.50;;;;;27.31;48.44;99323.59;5077337;27;45454;-70
2023/09/06 11:14:49;;;;;;;;;13.60;11.80;;;;;27.39;47.97;99340.72;5076855;28;45449;-70
2023/09/06 11:17:23;;;;;;;;;15.25;15.00;;;;;27.43;47.83;99328.56;5077077;27;45482;-69
2023/09/06 11:19:50;;;;;;;;;11.75;11.75;;;;;27.50;47.49;99322.47;5076967;28;45389;-70